createdAt,value
2018-08-28T00:01:57.192Z,55.30
2018-08-28T00:04:25.645Z,56.40
2018-08-28T00:06:53.919Z,55.40
2018-08-28T00:09:22.197Z,55.50
2018-08-28T00:11:50.485Z,55.40
2018-08-28T00:14:18.792Z,55.30
2018-08-28T00:16:47.065Z,55.30
2018-08-28T00:19:15.385Z,55.40
2018-08-28T00:21:43.725Z,55.20
2018-08-28T00:24:12.009Z,55.30
2018-08-28T00:26:40.299Z,55.50
2018-08-28T00:29:08.572Z,55.40
2018-08-28T00:31:36.853Z,55.30
2018-08-28T00:34:05.195Z,55.50
2018-08-28T00:36:33.494Z,55.50
2018-08-28T00:39:01.812Z,55.40
2018-08-28T00:41:30.101Z,55.60
2018-08-28T00:43:58.396Z,55.60
2018-08-28T00:46:26.758Z,55.60
2018-08-28T00:48:55.058Z,55.60
2018-08-28T00:51:23.385Z,55.60
2018-08-28T00:53:51.674Z,55.60
2018-08-28T00:56:19.956Z,55.60
2018-08-28T00:58:48.326Z,55.60
2018-08-28T01:01:16.560Z,55.70
2018-08-28T01:03:44.847Z,55.70
2018-08-28T01:06:13.126Z,55.70
2018-08-28T01:08:41.437Z,55.80
2018-08-28T01:11:10.147Z,55.70
2018-08-28T01:13:38.427Z,55.80
2018-08-28T01:16:06.701Z,55.80
2018-08-28T01:18:34.977Z,55.80
2018-08-28T01:21:03.270Z,55.80
2018-08-28T01:23:31.538Z,55.80
2018-08-28T01:25:59.844Z,55.80
2018-08-28T01:28:28.106Z,55.80
2018-08-28T01:30:56.394Z,55.90
2018-08-28T01:33:24.685Z,56.20
2018-08-28T01:35:52.944Z,56.10
2018-08-28T01:38:21.241Z,56.10
2018-08-28T01:40:49.517Z,56.10
2018-08-28T01:43:23.318Z,56.10
2018-08-28T01:45:52.428Z,56.10
2018-08-28T01:48:20.814Z,56.00
2018-08-28T01:50:49.155Z,56.00
2018-08-28T01:53:17.410Z,56.10
2018-08-28T01:55:45.697Z,56.00
2018-08-28T01:58:13.957Z,56.00
2018-08-28T02:00:42.253Z,56.10
2018-08-28T02:03:10.497Z,56.10
2018-08-28T02:05:38.804Z,56.10
2018-08-28T02:08:07.081Z,56.00
2018-08-28T02:10:35.551Z,56.00
2018-08-28T02:13:03.931Z,56.10
2018-08-28T02:15:32.491Z,56.10
2018-08-28T02:18:00.736Z,56.10
2018-08-28T02:20:29.037Z,56.10
2018-08-28T02:22:57.301Z,56.10
2018-08-28T02:25:25.616Z,56.00
2018-08-28T02:27:53.896Z,56.00
2018-08-28T02:30:22.204Z,56.00
2018-08-28T02:32:50.505Z,56.10
2018-08-28T02:35:18.796Z,56.00
2018-08-28T02:37:47.054Z,56.10
2018-08-28T02:40:15.339Z,56.00
2018-08-28T02:42:43.609Z,56.00
2018-08-28T02:45:11.911Z,56.10
2018-08-28T02:47:40.201Z,56.00
2018-08-28T02:50:08.452Z,56.00
2018-08-28T02:52:36.743Z,56.10
2018-08-28T02:55:05.075Z,55.90
2018-08-28T02:57:33.396Z,56.10
2018-08-28T03:00:01.709Z,56.10
2018-08-28T03:02:29.985Z,56.10
2018-08-28T03:04:58.303Z,56.10
2018-08-28T03:07:26.626Z,56.00
2018-08-28T03:09:54.888Z,56.10
2018-08-28T03:12:23.193Z,56.10
2018-08-28T03:14:51.469Z,56.00
2018-08-28T03:17:19.761Z,56.20
2018-08-28T03:19:48.049Z,56.10
2018-08-28T03:22:16.354Z,56.10
2018-08-28T03:24:44.628Z,56.00
2018-08-28T03:27:12.889Z,56.10
2018-08-28T03:29:41.201Z,56.00
2018-08-28T03:32:09.681Z,56.00
2018-08-28T03:34:37.945Z,55.90
2018-08-28T03:37:06.242Z,55.90
2018-08-28T03:39:34.523Z,56.00
2018-08-28T03:42:02.781Z,56.10
2018-08-28T03:44:31.101Z,56.00
2018-08-28T03:46:59.317Z,56.00
2018-08-28T03:49:27.584Z,55.90
2018-08-28T03:51:55.878Z,55.90
2018-08-28T03:54:24.143Z,56.00
2018-08-28T03:56:52.898Z,55.90
2018-08-28T03:59:21.188Z,55.90
2018-08-28T04:01:49.491Z,55.70
2018-08-28T04:04:17.775Z,55.80
2018-08-28T04:06:46.055Z,55.90
2018-08-28T04:09:14.331Z,55.80
2018-08-28T04:11:42.617Z,55.80
2018-08-28T04:14:10.898Z,55.80
2018-08-28T04:16:39.165Z,55.90
2018-08-28T04:19:07.588Z,55.80
2018-08-28T04:21:35.872Z,55.80
2018-08-28T04:24:04.137Z,55.90
2018-08-28T04:26:32.425Z,55.90
2018-08-28T04:29:00.690Z,55.80
2018-08-28T04:31:28.968Z,56.10
2018-08-28T04:33:57.218Z,55.90
2018-08-28T04:36:25.515Z,55.90
2018-08-28T04:38:53.793Z,55.80
2018-08-28T04:41:22.096Z,55.70
2018-08-28T04:43:50.398Z,55.80
2018-08-28T04:46:18.678Z,55.80
2018-08-28T04:48:47.015Z,55.80
2018-08-28T04:51:15.228Z,55.60
2018-08-28T04:53:43.520Z,55.70
2018-08-28T04:56:11.814Z,55.60
2018-08-28T04:58:40.326Z,55.60
2018-08-28T05:01:08.591Z,55.60
2018-08-28T05:03:36.873Z,55.60
2018-08-28T05:06:05.165Z,55.70
2018-08-28T05:08:33.461Z,55.70
2018-08-28T05:11:01.717Z,55.80
2018-08-28T05:13:30.007Z,55.70
2018-08-28T05:15:58.551Z,55.70
2018-08-28T05:18:26.760Z,55.70
2018-08-28T05:20:55.076Z,55.70
2018-08-28T05:23:23.343Z,55.70
2018-08-28T05:25:51.640Z,55.70
2018-08-28T05:28:19.984Z,55.80
2018-08-28T05:30:48.223Z,55.80
2018-08-28T05:33:16.520Z,55.80
2018-08-28T05:35:44.795Z,55.80
2018-08-28T05:38:13.095Z,55.80
2018-08-28T05:40:41.390Z,55.70
2018-08-28T05:43:09.709Z,55.80
2018-08-28T05:45:37.993Z,55.70
2018-08-28T05:48:06.286Z,55.70
2018-08-28T05:50:34.555Z,55.60
2018-08-28T05:53:03.129Z,55.70
2018-08-28T05:55:31.413Z,56.20
2018-08-28T05:57:59.681Z,55.60
2018-08-28T06:00:27.975Z,55.60
2018-08-28T06:02:56.241Z,55.70
2018-08-28T06:05:24.537Z,56.30
2018-08-28T06:07:52.806Z,55.70
2018-08-28T06:10:21.104Z,55.60
2018-08-28T06:12:49.790Z,55.70
2018-08-28T06:15:18.127Z,55.60
2018-08-28T06:17:46.404Z,55.70
2018-08-28T06:20:15.147Z,55.70
2018-08-28T06:22:43.489Z,55.60
2018-08-28T06:25:11.803Z,55.60
2018-08-28T06:27:40.101Z,55.70
2018-08-28T06:30:08.389Z,55.70
2018-08-28T06:32:36.713Z,55.50
2018-08-28T06:35:05.553Z,55.60
2018-08-28T06:37:33.834Z,55.50
2018-08-28T06:40:02.137Z,56.10
2018-08-28T06:42:30.457Z,55.30
2018-08-28T06:44:58.729Z,55.30
2018-08-28T06:47:27.017Z,55.40
2018-08-28T06:49:55.265Z,55.20
2018-08-28T06:52:23.561Z,55.20
2018-08-28T06:54:51.840Z,55.20
2018-08-28T06:57:20.139Z,55.60
2018-08-28T06:59:48.685Z,56.00
2018-08-28T07:02:16.967Z,55.90
2018-08-28T07:04:45.242Z,55.60
2018-08-28T07:07:13.520Z,57.00
2018-08-28T07:09:41.833Z,55.80
2018-08-28T07:12:10.100Z,55.60
2018-08-28T07:14:38.413Z,55.80
2018-08-28T07:17:06.729Z,55.90
2018-08-28T07:19:35.007Z,56.00
2018-08-28T07:22:03.314Z,56.40
2018-08-28T07:24:31.930Z,56.50
2018-08-28T07:27:00.233Z,56.00
2018-08-28T07:29:28.495Z,56.10
2018-08-28T07:31:56.852Z,56.00
2018-08-28T07:34:25.044Z,56.40
2018-08-28T07:36:53.380Z,56.60
2018-08-28T07:39:21.657Z,56.30
2018-08-28T07:41:49.954Z,56.10
2018-08-28T07:44:18.301Z,55.90
2018-08-28T07:46:46.876Z,56.10
2018-08-28T07:49:15.157Z,56.90
2018-08-28T07:51:43.421Z,56.50
2018-08-28T07:54:12.555Z,56.20
2018-08-28T07:56:40.852Z,56.00
2018-08-28T07:59:09.169Z,55.70
2018-08-28T08:01:37.852Z,55.50
2018-08-28T08:04:06.189Z,55.60
2018-08-28T08:06:34.787Z,55.40
2018-08-28T08:09:03.161Z,55.20
2018-08-28T08:11:31.448Z,55.20
2018-08-28T08:13:59.829Z,56.00
2018-08-28T08:16:28.107Z,55.30
2018-08-28T08:18:56.437Z,54.90
2018-08-28T08:21:24.741Z,55.00
2018-08-28T08:23:53.028Z,55.20
2018-08-28T08:26:21.322Z,54.70
2018-08-28T08:28:49.614Z,54.70
2018-08-28T08:31:17.909Z,54.70
2018-08-28T08:33:46.365Z,54.50
2018-08-28T08:36:14.649Z,54.90
2018-08-28T08:38:42.949Z,54.50
2018-08-28T08:41:11.229Z,54.50
2018-08-28T08:43:39.673Z,54.40
2018-08-28T08:46:07.992Z,54.20
2018-08-28T08:48:36.550Z,54.40
2018-08-28T08:51:04.895Z,56.70
2018-08-28T08:53:33.156Z,54.80
2018-08-28T08:56:01.482Z,54.80
2018-08-28T08:58:29.785Z,55.00
2018-08-28T09:00:58.262Z,54.20
2018-08-28T09:03:26.568Z,54.20
2018-08-28T09:05:54.864Z,53.90
2018-08-28T09:08:23.135Z,53.90
2018-08-28T09:10:51.425Z,53.80
2018-08-28T09:13:19.733Z,54.10
2018-08-28T09:15:48.034Z,53.80
2018-08-28T09:18:16.372Z,53.80
2018-08-28T09:20:44.661Z,53.90
2018-08-28T09:23:12.945Z,53.70
2018-08-28T09:25:41.308Z,53.40
2018-08-28T09:28:09.597Z,53.30
2018-08-28T09:30:37.885Z,53.40
2018-08-28T09:33:06.173Z,54.30
2018-08-28T09:35:34.593Z,53.80
2018-08-28T09:38:02.870Z,53.70
2018-08-28T09:40:31.198Z,53.80
2018-08-28T09:42:59.481Z,53.30
2018-08-28T09:45:27.777Z,53.10
2018-08-28T09:47:56.084Z,53.00
2018-08-28T09:50:24.423Z,53.00
2018-08-28T09:52:52.625Z,54.30
2018-08-28T09:55:20.909Z,52.70
2018-08-28T09:57:49.262Z,53.30
2018-08-28T10:00:22.789Z,53.00
2018-08-28T10:02:51.101Z,53.00
2018-08-28T10:05:19.603Z,52.80
2018-08-28T10:07:48.109Z,52.90
2018-08-28T10:10:16.388Z,52.60
2018-08-28T10:12:44.961Z,52.50
2018-08-28T10:15:13.278Z,52.70
2018-08-28T10:17:42.017Z,52.30
2018-08-28T10:20:10.365Z,52.20
2018-08-28T10:22:38.694Z,52.40
2018-08-28T10:25:06.986Z,52.30
2018-08-28T10:27:35.258Z,52.60
2018-08-28T10:30:03.645Z,52.30
2018-08-28T10:32:31.969Z,51.80
2018-08-28T10:35:00.552Z,52.40
2018-08-28T10:37:28.833Z,52.20
2018-08-28T10:39:57.149Z,52.10
2018-08-28T10:42:25.465Z,51.80
2018-08-28T10:44:53.781Z,51.80
2018-08-28T10:47:22.074Z,51.70
2018-08-28T10:49:50.670Z,51.60
2018-08-28T10:52:18.965Z,51.60
2018-08-28T10:54:47.293Z,51.60
2018-08-28T10:57:15.565Z,51.70
2018-08-28T10:59:43.875Z,50.80
2018-08-28T11:02:12.129Z,51.70
2018-08-28T11:04:40.461Z,51.70
2018-08-28T11:07:08.685Z,51.50
2018-08-28T11:09:36.991Z,51.30
2018-08-28T11:12:05.307Z,51.50
2018-08-28T11:14:33.581Z,51.40
2018-08-28T11:17:01.926Z,51.30
2018-08-28T11:19:30.171Z,50.90
2018-08-28T11:21:58.476Z,50.80
2018-08-28T11:24:26.750Z,50.90
2018-08-28T11:26:55.056Z,50.60
2018-08-28T11:29:23.343Z,50.60
2018-08-28T11:31:51.941Z,50.70
2018-08-28T11:34:20.496Z,50.80
2018-08-28T11:36:48.791Z,50.70
2018-08-28T11:39:17.394Z,50.00
2018-08-28T11:41:45.669Z,50.40
2018-08-28T11:44:13.951Z,50.80
2018-08-28T11:46:42.235Z,50.50
2018-08-28T11:49:10.853Z,50.60
2018-08-28T11:51:39.142Z,49.90
2018-08-28T11:54:07.924Z,49.40
2018-08-28T11:56:36.566Z,50.50
2018-08-28T11:59:04.877Z,50.40
2018-08-28T12:01:33.189Z,50.70
2018-08-28T12:04:01.542Z,50.30
2018-08-28T12:06:29.873Z,50.80
2018-08-28T12:08:58.134Z,50.20
2018-08-28T12:11:26.404Z,50.10
2018-08-28T12:13:54.716Z,48.00
2018-08-28T12:16:22.990Z,50.80
2018-08-28T12:18:51.285Z,47.30
2018-08-28T12:21:19.593Z,48.00
2018-08-28T12:23:47.916Z,48.50
2018-08-28T12:26:16.252Z,50.20
2018-08-28T12:28:44.581Z,50.00
2018-08-28T12:31:12.846Z,49.70
2018-08-28T12:33:41.142Z,49.30
2018-08-28T12:36:09.437Z,48.40
2018-08-28T12:38:37.808Z,46.50
2018-08-28T12:41:06.469Z,47.90
2018-08-28T12:43:34.806Z,50.30
2018-08-28T12:46:03.418Z,50.10
2018-08-28T12:48:31.693Z,50.10
2018-08-28T12:51:00.012Z,49.00
2018-08-28T12:53:28.317Z,49.90
2018-08-28T12:55:56.860Z,49.20
2018-08-28T12:58:25.517Z,49.20
2018-08-28T13:00:53.809Z,49.00
2018-08-28T13:03:22.109Z,49.20
2018-08-28T13:05:50.764Z,49.20
2018-08-28T13:08:19.072Z,47.40
2018-08-28T13:10:47.367Z,48.50
2018-08-28T13:13:15.660Z,49.40
2018-08-28T13:15:44.290Z,45.00
2018-08-28T13:18:12.866Z,49.40
2018-08-28T13:20:41.135Z,48.40
2018-08-28T13:23:09.437Z,49.40
2018-08-28T13:25:37.880Z,48.80
2018-08-28T13:28:06.077Z,49.30
2018-08-28T13:30:34.385Z,49.20
2018-08-28T13:33:02.702Z,49.00
2018-08-28T13:35:31.008Z,48.70
2018-08-28T13:37:59.486Z,49.00
2018-08-28T13:40:27.882Z,46.90
2018-08-28T13:42:56.109Z,45.60
2018-08-28T13:45:24.729Z,46.00
2018-08-28T13:47:53.029Z,48.90
2018-08-28T13:50:22.021Z,49.00
2018-08-28T13:52:50.345Z,48.80
2018-08-28T13:55:18.853Z,48.80
2018-08-28T13:57:47.135Z,48.60
2018-08-28T14:00:15.435Z,47.90
2018-08-28T14:02:44.113Z,48.70
2018-08-28T14:05:12.626Z,45.20
2018-08-28T14:07:41.089Z,45.10
2018-08-28T14:10:09.421Z,47.90
2018-08-28T14:12:37.738Z,48.70
2018-08-28T14:15:06.097Z,48.30
2018-08-28T14:17:34.391Z,47.40
2018-08-28T14:20:03.004Z,48.40
2018-08-28T14:22:31.387Z,48.20
2018-08-28T14:24:59.634Z,48.20
2018-08-28T14:27:27.918Z,48.30
2018-08-28T14:29:56.207Z,48.10
2018-08-28T14:32:24.493Z,48.20
2018-08-28T14:34:52.776Z,48.30
2018-08-28T14:37:21.084Z,47.50
2018-08-28T14:39:49.475Z,47.30
2018-08-28T14:42:17.790Z,47.80
2018-08-28T14:44:46.068Z,47.10
2018-08-28T14:49:51.194Z,48.20
2018-08-28T14:52:19.383Z,47.50
2018-08-28T14:54:47.716Z,47.70
2018-08-28T14:57:16.073Z,48.10
2018-08-28T14:59:44.431Z,45.80
2018-08-28T15:02:12.707Z,44.40
2018-08-28T15:04:40.993Z,46.90
2018-08-28T15:07:09.466Z,47.90
2018-08-28T15:09:37.656Z,47.60
2018-08-28T15:12:06.105Z,43.80
2018-08-28T15:14:34.792Z,46.20
2018-08-28T15:17:03.290Z,46.60
2018-08-28T15:19:31.606Z,47.50
2018-08-28T15:21:59.896Z,47.90
2018-08-28T15:24:28.238Z,45.10
2018-08-28T15:26:56.565Z,47.80
2018-08-28T15:29:24.885Z,44.00
2018-08-28T15:31:53.169Z,47.90
2018-08-28T15:34:21.489Z,47.10
2018-08-28T15:36:49.780Z,48.20
2018-08-28T15:39:18.068Z,47.00
2018-08-28T15:41:46.377Z,47.40
2018-08-28T15:44:14.697Z,46.90
2018-08-28T15:46:43.025Z,46.20
2018-08-28T15:49:11.289Z,46.70
2018-08-28T15:51:39.636Z,47.60
2018-08-28T15:54:07.972Z,47.70
2018-08-28T15:56:36.435Z,48.00
2018-08-28T15:59:05.002Z,47.90
2018-08-28T16:01:33.268Z,47.70
2018-08-28T16:04:01.608Z,48.10
2018-08-28T16:06:30.109Z,48.00
2018-08-28T16:08:58.403Z,47.50
2018-08-28T16:11:26.685Z,47.60
2018-08-28T16:13:54.982Z,47.30
2018-08-28T16:16:23.620Z,47.50
2018-08-28T16:18:51.947Z,46.50
2018-08-28T16:21:20.269Z,46.70
2018-08-28T16:23:49.652Z,47.50
2018-08-28T16:26:17.937Z,47.20
2018-08-28T16:28:46.266Z,47.20
2018-08-28T16:31:15.329Z,47.30
2018-08-28T16:33:43.628Z,47.70
2018-08-28T16:36:11.942Z,47.30
2018-08-28T16:38:40.254Z,47.30
2018-08-28T16:41:08.634Z,47.50
2018-08-28T16:43:36.871Z,47.10
2018-08-28T16:46:05.198Z,45.60
2018-08-28T16:48:33.591Z,47.80
2018-08-28T16:51:01.864Z,46.60
2018-08-28T16:53:30.190Z,46.80
2018-08-28T16:55:58.550Z,46.70
2018-08-28T16:58:26.837Z,46.90
2018-08-28T17:00:55.130Z,46.60
2018-08-28T17:03:23.460Z,46.60
2018-08-28T17:05:51.769Z,47.50
2018-08-28T17:08:20.136Z,47.80
2018-08-28T17:10:48.456Z,47.60
2018-08-28T17:13:16.736Z,47.10
2018-08-28T17:15:45.032Z,47.10
2018-08-28T17:18:13.374Z,48.20
2018-08-28T17:20:41.645Z,47.40
2018-08-28T17:23:09.958Z,47.80
2018-08-28T17:25:38.297Z,47.90
2018-08-28T17:28:06.653Z,48.20
2018-08-28T17:30:35.222Z,47.60
2018-08-28T17:33:03.542Z,47.40
2018-08-28T17:35:31.854Z,47.60
2018-08-28T17:38:00.144Z,47.60
2018-08-28T17:40:28.436Z,48.30
2018-08-28T17:42:56.749Z,48.30
2018-08-28T17:45:25.079Z,48.40
2018-08-28T17:47:53.392Z,48.30
2018-08-28T17:50:21.697Z,48.80
2018-08-28T17:52:50.257Z,48.90
2018-08-28T17:55:18.578Z,49.80
2018-08-28T17:57:46.876Z,49.20
2018-08-28T18:00:15.169Z,49.50
2018-08-28T18:02:43.450Z,49.30
2018-08-28T18:05:11.773Z,49.90
2018-08-28T18:07:40.060Z,49.90
2018-08-28T18:10:08.362Z,50.20
2018-08-28T18:12:36.724Z,50.30
2018-08-28T18:15:05.480Z,50.30
2018-08-28T18:17:33.797Z,51.00
2018-08-28T18:20:02.061Z,50.50
2018-08-28T18:22:30.481Z,50.50
2018-08-28T18:24:58.934Z,50.60
2018-08-28T18:27:27.250Z,50.70
2018-08-28T18:29:55.546Z,50.80
2018-08-28T18:32:23.845Z,50.80
2018-08-28T18:34:52.170Z,50.70
2018-08-28T18:37:20.489Z,50.90
2018-08-28T18:39:48.761Z,50.90
2018-08-28T18:42:17.087Z,50.90
2018-08-28T18:44:45.380Z,51.00
2018-08-28T18:47:13.674Z,51.00
2018-08-28T18:49:41.985Z,51.10
2018-08-28T18:52:10.661Z,50.70
2018-08-28T18:54:38.949Z,51.20
2018-08-28T18:57:07.256Z,51.20
2018-08-28T18:59:35.545Z,51.30
2018-08-28T19:02:03.881Z,51.30
2018-08-28T19:04:32.190Z,51.30
2018-08-28T19:07:00.535Z,51.40
2018-08-28T19:09:28.835Z,51.50
2018-08-28T19:11:57.211Z,51.50
2018-08-28T19:14:25.572Z,51.60
2018-08-28T19:16:53.884Z,50.80
2018-08-28T19:19:22.451Z,51.70
2018-08-28T19:21:50.757Z,51.50
2018-08-28T19:24:19.081Z,51.70
2018-08-28T19:26:47.364Z,51.70
2018-08-28T19:29:15.693Z,51.70
2018-08-28T19:31:44.089Z,51.10
2018-08-28T19:34:12.317Z,51.80
2018-08-28T19:36:40.598Z,51.70
2018-08-28T19:39:09.212Z,51.70
2018-08-28T19:41:37.570Z,52.20
2018-08-28T19:44:06.218Z,51.60
2018-08-28T19:46:34.461Z,51.40
2018-08-28T19:49:02.765Z,51.50
2018-08-28T19:51:31.029Z,51.30
2018-08-28T19:53:59.349Z,51.50
2018-08-28T19:56:27.647Z,51.30
2018-08-28T19:58:55.925Z,51.40
2018-08-28T20:01:24.221Z,51.30
2018-08-28T20:03:52.572Z,51.30
2018-08-28T20:06:20.873Z,51.30
2018-08-28T20:08:49.214Z,51.30
2018-08-28T20:11:17.520Z,51.30
2018-08-28T20:13:45.857Z,51.30
2018-08-28T20:16:14.268Z,51.20
2018-08-28T20:18:43.250Z,51.10
2018-08-28T20:21:11.533Z,51.10
2018-08-28T20:23:39.829Z,51.50
2018-08-28T20:26:08.144Z,51.40
2018-08-28T20:28:36.457Z,51.40
2018-08-28T20:31:04.782Z,51.40
2018-08-28T20:33:33.098Z,51.50
2018-08-28T20:36:01.380Z,51.30
2018-08-28T20:38:29.661Z,51.30
2018-08-28T20:40:57.990Z,51.40
2018-08-28T20:43:26.288Z,51.40
2018-08-28T20:45:54.573Z,51.40
2018-08-28T20:48:22.916Z,51.40
2018-08-28T20:50:51.637Z,51.50
2018-08-28T20:53:20.630Z,51.50
2018-08-28T20:55:49.041Z,51.50
2018-08-28T20:58:17.350Z,51.50
2018-08-28T21:00:45.634Z,51.60
2018-08-28T21:03:13.917Z,51.60
2018-08-28T21:05:42.193Z,51.60
2018-08-28T21:08:10.474Z,51.60
2018-08-28T21:10:38.768Z,51.60
2018-08-28T21:13:07.071Z,51.60
2018-08-28T21:15:35.609Z,51.60
2018-08-28T21:18:03.910Z,51.60
2018-08-28T21:20:32.221Z,51.70
2018-08-28T21:23:00.562Z,51.60
2018-08-28T21:25:28.865Z,51.70
2018-08-28T21:27:57.205Z,51.70
2018-08-28T21:30:25.468Z,51.70
2018-08-28T21:32:53.768Z,51.80
2018-08-28T21:35:22.041Z,51.80
2018-08-28T21:37:50.349Z,51.80
2018-08-28T21:40:18.625Z,51.80
2018-08-28T21:42:46.926Z,51.80
2018-08-28T21:45:15.218Z,51.90
2018-08-28T21:47:43.505Z,51.90
2018-08-28T21:50:11.826Z,52.00
2018-08-28T21:52:40.105Z,52.70
2018-08-28T21:55:08.404Z,52.10
2018-08-28T21:57:36.753Z,52.10
2018-08-28T22:00:05.776Z,52.10
2018-08-28T22:02:34.252Z,52.20
2018-08-28T22:05:02.561Z,52.20
2018-08-28T22:07:36.177Z,52.20
2018-08-28T22:10:04.497Z,52.30
2018-08-28T22:12:32.821Z,52.20
2018-08-28T22:15:01.132Z,52.40
2018-08-28T22:17:29.425Z,52.40
2018-08-28T22:19:57.705Z,52.40
2018-08-28T22:22:25.992Z,52.40
2018-08-28T22:24:54.288Z,52.40
2018-08-28T22:27:22.629Z,52.50
2018-08-28T22:29:50.888Z,53.10
2018-08-28T22:32:19.242Z,52.50
2018-08-28T22:34:47.541Z,52.50
2018-08-28T22:37:15.842Z,52.50
2018-08-28T22:39:44.158Z,52.60
2018-08-28T22:42:12.471Z,52.70
2018-08-28T22:44:41.160Z,52.60
2018-08-28T22:47:09.461Z,52.70
2018-08-28T22:49:37.780Z,52.70
2018-08-28T22:52:06.071Z,52.70
2018-08-28T22:54:34.355Z,52.80
2018-08-28T22:57:02.658Z,52.80
2018-08-28T22:59:30.932Z,52.80
2018-08-28T23:01:59.482Z,52.80
2018-08-28T23:04:27.780Z,52.90
2018-08-28T23:06:56.065Z,52.80
2018-08-28T23:09:24.646Z,52.80
2018-08-28T23:11:52.959Z,53.50
2018-08-28T23:14:21.231Z,52.90
2018-08-28T23:16:49.521Z,53.00
2018-08-28T23:19:17.763Z,52.90
2018-08-28T23:21:46.057Z,52.80
2018-08-28T23:24:14.310Z,52.80
2018-08-28T23:26:42.602Z,52.90
2018-08-28T23:29:10.877Z,53.00
2018-08-28T23:31:39.164Z,53.00
2018-08-28T23:34:07.417Z,53.00
2018-08-28T23:36:35.729Z,53.00
2018-08-28T23:39:04.292Z,53.00
2018-08-28T23:41:32.625Z,53.00
2018-08-28T23:44:00.921Z,53.00
2018-08-28T23:46:29.697Z,53.00
2018-08-28T23:48:57.991Z,53.10
2018-08-28T23:51:26.259Z,53.10
2018-08-28T23:53:54.778Z,53.00
2018-08-28T23:56:23.028Z,53.00
2018-08-28T23:58:51.313Z,53.10
